sensor_id;sensor_type;location;lat;lon;timestamp;P1;durP1;ratioP1;P2;durP2;ratioP2
62633;SDS011;48704;50.534;6.442;2023-05-14T00:01:28;12.00;;;7.05;;
62633;SDS011;48704;50.534;6.442;2023-05-14T00:03:54;9.27;;;6.47;;
62633;SDS011;48704;50.534;6.442;2023-05-14T00:06:19;9.30;;;6.75;;
62633;SDS011;48704;50.534;6.442;2023-05-14T00:08:44;9.73;;;6.20;;
62633;SDS011;48704;50.534;6.442;2023-05-14T00:11:10;9.60;;;7.38;;
62633;SDS011;48704;50.534;6.442;2023-05-14T00:13:35;10.30;;;7.03;;
62633;SDS011;48704;50.534;6.442;2023-05-14T00:16:01;9.57;;;6.90;;
62633;SDS011;48704;50.534;6.442;2023-05-14T00:18:26;13.18;;;7.15;;
62633;SDS011;48704;50.534;6.442;2023-05-14T00:20:51;9.30;;;6.82;;
62633;SDS011;48704;50.534;6.442;2023-05-14T00:23:19;10.25;;;7.13;;
62633;SDS011;48704;50.534;6.442;2023-05-14T00:25:45;8.20;;;5.90;;
62633;SDS011;48704;50.534;6.442;2023-05-14T00:28:10;8.85;;;6.40;;
62633;SDS011;48704;50.534;6.442;2023-05-14T00:30:35;8.70;;;6.50;;
62633;SDS011;48704;50.534;6.442;2023-05-14T00:33:01;8.63;;;6.53;;
62633;SDS011;48704;50.534;6.442;2023-05-14T00:35:26;9.50;;;7.05;;
62633;SDS011;48704;50.534;6.442;2023-05-14T00:37:51;9.27;;;6.90;;
62633;SDS011;48704;50.534;6.442;2023-05-14T00:40:17;9.40;;;6.90;;
62633;SDS011;48704;50.534;6.442;2023-05-14T00:42:43;9.85;;;6.63;;
62633;SDS011;48704;50.534;6.442;2023-05-14T00:45:09;9.18;;;7.00;;
62633;SDS011;48704;50.534;6.442;2023-05-14T00:47:35;9.00;;;6.85;;
62633;SDS011;48704;50.534;6.442;2023-05-14T00:50:01;9.15;;;6.32;;
62633;SDS011;48704;50.534;6.442;2023-05-14T00:52:27;8.25;;;5.95;;
62633;SDS011;48704;50.534;6.442;2023-05-14T00:54:53;8.73;;;6.63;;
62633;SDS011;48704;50.534;6.442;2023-05-14T00:57:18;9.70;;;6.78;;
62633;SDS011;48704;50.534;6.442;2023-05-14T00:59:44;10.45;;;6.93;;
62633;SDS011;48704;50.534;6.442;2023-05-14T01:02:09;10.88;;;7.28;;
62633;SDS011;48704;50.534;6.442;2023-05-14T01:04:35;9.88;;;7.15;;
62633;SDS011;48704;50.534;6.442;2023-05-14T01:07:08;10.13;;;7.65;;
62633;SDS011;48704;50.534;6.442;2023-05-14T01:09:52;11.45;;;7.47;;
62633;SDS011;48704;50.534;6.442;2023-05-14T01:15:23;13.23;;;8.38;;
62633;SDS011;48704;50.534;6.442;2023-05-14T01:17:53;12.35;;;7.97;;
62633;SDS011;48704;50.534;6.442;2023-05-14T01:20:20;11.27;;;8.10;;
62633;SDS011;48704;50.534;6.442;2023-05-14T01:22:46;11.80;;;8.10;;
62633;SDS011;48704;50.534;6.442;2023-05-14T01:25:12;12.82;;;9.27;;
62633;SDS011;48704;50.534;6.442;2023-05-14T01:27:40;11.05;;;7.45;;
62633;SDS011;48704;50.534;6.442;2023-05-14T01:30:20;10.43;;;7.57;;
62633;SDS011;48704;50.534;6.442;2023-05-14T01:32:52;12.45;;;8.45;;
62633;SDS011;48704;50.534;6.442;2023-05-14T01:35:22;11.23;;;7.50;;
62633;SDS011;48704;50.534;6.442;2023-05-14T01:37:51;11.57;;;8.00;;
62633;SDS011;48704;50.534;6.442;2023-05-14T01:40:19;13.82;;;8.48;;
62633;SDS011;48704;50.534;6.442;2023-05-14T01:42:44;10.43;;;7.95;;
62633;SDS011;48704;50.534;6.442;2023-05-14T01:45:10;11.43;;;8.43;;
62633;SDS011;48704;50.534;6.442;2023-05-14T01:47:36;10.70;;;7.65;;
62633;SDS011;48704;50.534;6.442;2023-05-14T01:50:01;11.30;;;8.10;;
62633;SDS011;48704;50.534;6.442;2023-05-14T01:52:26;11.93;;;7.57;;
62633;SDS011;48704;50.534;6.442;2023-05-14T01:54:51;9.88;;;7.75;;
62633;SDS011;48704;50.534;6.442;2023-05-14T01:57:17;10.77;;;8.32;;
62633;SDS011;48704;50.534;6.442;2023-05-14T01:59:42;13.88;;;8.32;;
62633;SDS011;48704;50.534;6.442;2023-05-14T02:02:07;13.30;;;8.52;;
62633;SDS011;48704;50.534;6.442;2023-05-14T02:04:39;11.52;;;7.75;;
62633;SDS011;48704;50.534;6.442;2023-05-14T02:07:04;11.27;;;7.97;;
62633;SDS011;48704;50.534;6.442;2023-05-14T02:09:30;11.32;;;8.57;;
62633;SDS011;48704;50.534;6.442;2023-05-14T02:11:55;12.13;;;7.70;;
62633;SDS011;48704;50.534;6.442;2023-05-14T02:14:20;13.60;;;7.75;;
62633;SDS011;48704;50.534;6.442;2023-05-14T02:16:46;12.00;;;7.68;;
62633;SDS011;48704;50.534;6.442;2023-05-14T02:19:11;11.25;;;8.38;;
62633;SDS011;48704;50.534;6.442;2023-05-14T02:21:36;11.63;;;7.75;;
62633;SDS011;48704;50.534;6.442;2023-05-14T02:24:01;13.73;;;8.20;;
62633;SDS011;48704;50.534;6.442;2023-05-14T02:26:27;9.93;;;7.55;;
62633;SDS011;48704;50.534;6.442;2023-05-14T02:28:52;9.82;;;7.47;;
62633;SDS011;48704;50.534;6.442;2023-05-14T02:31:18;10.70;;;8.18;;
62633;SDS011;48704;50.534;6.442;2023-05-14T02:33:43;10.75;;;8.13;;
62633;SDS011;48704;50.534;6.442;2023-05-14T02:36:09;10.48;;;7.30;;
62633;SDS011;48704;50.534;6.442;2023-05-14T02:38:34;11.45;;;8.02;;
62633;SDS011;48704;50.534;6.442;2023-05-14T02:40:59;13.43;;;9.60;;
62633;SDS011;48704;50.534;6.442;2023-05-14T02:43:25;13.65;;;9.23;;
62633;SDS011;48704;50.534;6.442;2023-05-14T02:45:50;13.88;;;9.18;;
62633;SDS011;48704;50.534;6.442;2023-05-14T02:48:15;14.02;;;9.65;;
62633;SDS011;48704;50.534;6.442;2023-05-14T02:50:41;12.35;;;8.32;;
62633;SDS011;48704;50.534;6.442;2023-05-14T02:53:06;15.07;;;9.02;;
62633;SDS011;48704;50.534;6.442;2023-05-14T02:55:32;12.20;;;8.18;;
62633;SDS011;48704;50.534;6.442;2023-05-14T02:57:58;11.13;;;8.60;;
62633;SDS011;48704;50.534;6.442;2023-05-14T03:00:23;14.98;;;9.80;;
62633;SDS011;48704;50.534;6.442;2023-05-14T03:02:49;18.42;;;11.27;;
62633;SDS011;48704;50.534;6.442;2023-05-14T03:05:14;16.10;;;10.55;;
62633;SDS011;48704;50.534;6.442;2023-05-14T03:07:39;13.18;;;10.43;;
62633;SDS011;48704;50.534;6.442;2023-05-14T03:10:05;19.67;;;10.18;;
62633;SDS011;48704;50.534;6.442;2023-05-14T03:12:30;18.77;;;11.07;;
62633;SDS011;48704;50.534;6.442;2023-05-14T03:14:56;16.83;;;11.75;;
62633;SDS011;48704;50.534;6.442;2023-05-14T03:17:21;16.67;;;11.13;;
62633;SDS011;48704;50.534;6.442;2023-05-14T03:19:47;17.10;;;11.38;;
62633;SDS011;48704;50.534;6.442;2023-05-14T03:22:12;18.23;;;11.75;;
62633;SDS011;48704;50.534;6.442;2023-05-14T03:24:38;17.65;;;10.25;;
62633;SDS011;48704;50.534;6.442;2023-05-14T03:27:04;16.42;;;10.73;;
62633;SDS011;48704;50.534;6.442;2023-05-14T03:29:30;16.85;;;11.75;;
62633;SDS011;48704;50.534;6.442;2023-05-14T03:31:55;15.95;;;10.63;;
62633;SDS011;48704;50.534;6.442;2023-05-14T03:34:20;16.42;;;11.65;;
62633;SDS011;48704;50.534;6.442;2023-05-14T03:36:46;18.38;;;13.57;;
62633;SDS011;48704;50.534;6.442;2023-05-14T03:39:11;16.80;;;11.75;;
62633;SDS011;48704;50.534;6.442;2023-05-14T03:41:39;18.85;;;12.38;;
62633;SDS011;48704;50.534;6.442;2023-05-14T03:44:05;19.77;;;13.00;;
62633;SDS011;48704;50.534;6.442;2023-05-14T03:46:31;17.45;;;11.93;;
62633;SDS011;48704;50.534;6.442;2023-05-14T03:48:57;17.17;;;12.23;;
62633;SDS011;48704;50.534;6.442;2023-05-14T03:51:22;20.38;;;13.00;;
62633;SDS011;48704;50.534;6.442;2023-05-14T03:53:50;18.02;;;11.93;;
62633;SDS011;48704;50.534;6.442;2023-05-14T03:56:15;20.17;;;12.45;;
62633;SDS011;48704;50.534;6.442;2023-05-14T03:58:40;16.75;;;11.60;;
62633;SDS011;48704;50.534;6.442;2023-05-14T04:01:06;18.77;;;11.43;;
62633;SDS011;48704;50.534;6.442;2023-05-14T04:03:32;17.30;;;11.77;;
62633;SDS011;48704;50.534;6.442;2023-05-14T04:05:57;15.75;;;11.30;;
62633;SDS011;48704;50.534;6.442;2023-05-14T04:08:22;17.83;;;11.55;;
62633;SDS011;48704;50.534;6.442;2023-05-14T04:10:49;18.42;;;12.68;;
62633;SDS011;48704;50.534;6.442;2023-05-14T04:13:15;19.98;;;14.02;;
62633;SDS011;48704;50.534;6.442;2023-05-14T04:15:40;23.48;;;15.10;;
62633;SDS011;48704;50.534;6.442;2023-05-14T04:18:06;22.58;;;14.88;;
62633;SDS011;48704;50.534;6.442;2023-05-14T04:20:31;22.70;;;15.20;;
62633;SDS011;48704;50.534;6.442;2023-05-14T04:22:56;22.95;;;14.13;;
62633;SDS011;48704;50.534;6.442;2023-05-14T04:25:22;19.65;;;12.93;;
62633;SDS011;48704;50.534;6.442;2023-05-14T04:27:48;22.13;;;14.32;;
62633;SDS011;48704;50.534;6.442;2023-05-14T04:30:13;18.70;;;13.27;;
62633;SDS011;48704;50.534;6.442;2023-05-14T04:32:39;18.02;;;12.05;;
62633;SDS011;48704;50.534;6.442;2023-05-14T04:35:04;18.65;;;11.45;;
62633;SDS011;48704;50.534;6.442;2023-05-14T04:37:30;19.65;;;12.23;;
62633;SDS011;48704;50.534;6.442;2023-05-14T04:39:57;17.15;;;12.43;;
62633;SDS011;48704;50.534;6.442;2023-05-14T04:42:22;17.27;;;11.85;;
62633;SDS011;48704;50.534;6.442;2023-05-14T04:44:47;19.20;;;12.68;;
62633;SDS011;48704;50.534;6.442;2023-05-14T04:47:16;18.08;;;12.25;;
62633;SDS011;48704;50.534;6.442;2023-05-14T04:49:41;17.27;;;11.73;;
62633;SDS011;48704;50.534;6.442;2023-05-14T04:52:09;17.08;;;11.23;;
62633;SDS011;48704;50.534;6.442;2023-05-14T04:54:34;19.67;;;11.88;;
62633;SDS011;48704;50.534;6.442;2023-05-14T04:56:59;17.02;;;10.75;;
62633;SDS011;48704;50.534;6.442;2023-05-14T04:59:28;15.75;;;10.85;;
62633;SDS011;48704;50.534;6.442;2023-05-14T05:01:54;16.38;;;11.70;;
62633;SDS011;48704;50.534;6.442;2023-05-14T05:04:19;15.88;;;10.10;;
62633;SDS011;48704;50.534;6.442;2023-05-14T05:06:45;15.05;;;10.05;;
62633;SDS011;48704;50.534;6.442;2023-05-14T05:09:10;15.63;;;10.27;;
62633;SDS011;48704;50.534;6.442;2023-05-14T05:11:35;16.27;;;10.15;;
62633;SDS011;48704;50.534;6.442;2023-05-14T05:14:01;17.90;;;11.43;;
62633;SDS011;48704;50.534;6.442;2023-05-14T05:16:27;15.48;;;9.73;;
62633;SDS011;48704;50.534;6.442;2023-05-14T05:18:52;15.30;;;10.55;;
62633;SDS011;48704;50.534;6.442;2023-05-14T05:21:17;15.80;;;10.68;;
62633;SDS011;48704;50.534;6.442;2023-05-14T05:23:43;14.15;;;9.95;;
62633;SDS011;48704;50.534;6.442;2023-05-14T05:26:08;18.67;;;10.40;;
62633;SDS011;48704;50.534;6.442;2023-05-14T05:28:33;21.80;;;14.23;;
62633;SDS011;48704;50.534;6.442;2023-05-14T05:30:59;23.52;;;14.40;;
62633;SDS011;48704;50.534;6.442;2023-05-14T05:33:24;27.08;;;17.92;;
62633;SDS011;48704;50.534;6.442;2023-05-14T05:35:49;24.23;;;16.42;;
62633;SDS011;48704;50.534;6.442;2023-05-14T05:38:16;20.70;;;14.65;;
62633;SDS011;48704;50.534;6.442;2023-05-14T05:40:42;19.27;;;14.20;;
62633;SDS011;48704;50.534;6.442;2023-05-14T05:43:07;29.10;;;18.83;;
62633;SDS011;48704;50.534;6.442;2023-05-14T05:45:33;20.75;;;14.90;;
62633;SDS011;48704;50.534;6.442;2023-05-14T05:47:58;37.83;;;21.30;;
62633;SDS011;48704;50.534;6.442;2023-05-14T05:50:23;27.45;;;18.10;;
62633;SDS011;48704;50.534;6.442;2023-05-14T05:52:48;20.52;;;13.70;;
62633;SDS011;48704;50.534;6.442;2023-05-14T05:55:14;14.52;;;10.95;;
62633;SDS011;48704;50.534;6.442;2023-05-14T05:57:39;15.00;;;9.52;;
62633;SDS011;48704;50.534;6.442;2023-05-14T06:00:05;14.18;;;9.93;;
62633;SDS011;48704;50.534;6.442;2023-05-14T06:02:37;14.50;;;10.88;;
62633;SDS011;48704;50.534;6.442;2023-05-14T06:05:03;17.02;;;11.63;;
62633;SDS011;48704;50.534;6.442;2023-05-14T06:07:29;15.00;;;10.10;;
62633;SDS011;48704;50.534;6.442;2023-05-14T06:09:55;12.93;;;9.70;;
62633;SDS011;48704;50.534;6.442;2023-05-14T06:12:20;13.15;;;9.82;;
62633;SDS011;48704;50.534;6.442;2023-05-14T06:14:45;14.10;;;9.95;;
62633;SDS011;48704;50.534;6.442;2023-05-14T06:17:11;13.82;;;10.02;;
62633;SDS011;48704;50.534;6.442;2023-05-14T06:19:36;12.65;;;8.82;;
62633;SDS011;48704;50.534;6.442;2023-05-14T06:22:01;16.30;;;9.95;;
62633;SDS011;48704;50.534;6.442;2023-05-14T06:24:27;16.65;;;9.65;;
62633;SDS011;48704;50.534;6.442;2023-05-14T06:26:52;14.13;;;9.15;;
62633;SDS011;48704;50.534;6.442;2023-05-14T06:29:17;14.82;;;10.32;;
62633;SDS011;48704;50.534;6.442;2023-05-14T06:31:42;15.10;;;10.25;;
62633;SDS011;48704;50.534;6.442;2023-05-14T06:34:08;13.20;;;10.10;;
62633;SDS011;48704;50.534;6.442;2023-05-14T06:36:33;13.07;;;10.10;;
62633;SDS011;48704;50.534;6.442;2023-05-14T06:38:58;13.30;;;9.65;;
62633;SDS011;48704;50.534;6.442;2023-05-14T06:41:24;13.70;;;9.95;;
62633;SDS011;48704;50.534;6.442;2023-05-14T06:43:51;13.82;;;10.50;;
62633;SDS011;48704;50.534;6.442;2023-05-14T06:46:16;14.90;;;9.65;;
62633;SDS011;48704;50.534;6.442;2023-05-14T06:48:42;14.10;;;9.25;;
62633;SDS011;48704;50.534;6.442;2023-05-14T06:51:07;13.25;;;9.55;;
62633;SDS011;48704;50.534;6.442;2023-05-14T06:53:33;14.05;;;9.88;;
62633;SDS011;48704;50.534;6.442;2023-05-14T06:55:58;14.27;;;9.25;;
62633;SDS011;48704;50.534;6.442;2023-05-14T06:58:23;13.43;;;7.75;;
62633;SDS011;48704;50.534;6.442;2023-05-14T07:00:49;13.48;;;7.80;;
62633;SDS011;48704;50.534;6.442;2023-05-14T07:03:14;12.10;;;7.72;;
62633;SDS011;48704;50.534;6.442;2023-05-14T07:05:39;10.88;;;7.70;;
62633;SDS011;48704;50.534;6.442;2023-05-14T07:08:05;11.35;;;8.30;;
62633;SDS011;48704;50.534;6.442;2023-05-14T07:10:30;13.32;;;8.23;;
62633;SDS011;48704;50.534;6.442;2023-05-14T07:12:56;10.35;;;7.65;;
62633;SDS011;48704;50.534;6.442;2023-05-14T07:15:22;11.30;;;7.15;;
62633;SDS011;48704;50.534;6.442;2023-05-14T07:17:47;12.50;;;8.77;;
62633;SDS011;48704;50.534;6.442;2023-05-14T07:20:13;9.63;;;7.38;;
62633;SDS011;48704;50.534;6.442;2023-05-14T07:22:38;15.50;;;8.02;;
62633;SDS011;48704;50.534;6.442;2023-05-14T07:25:03;12.13;;;7.32;;
62633;SDS011;48704;50.534;6.442;2023-05-14T07:27:30;9.85;;;6.53;;
62633;SDS011;48704;50.534;6.442;2023-05-14T07:29:55;10.50;;;6.80;;
62633;SDS011;48704;50.534;6.442;2023-05-14T07:32:20;10.27;;;6.97;;
62633;SDS011;48704;50.534;6.442;2023-05-14T07:34:46;8.48;;;6.10;;
62633;SDS011;48704;50.534;6.442;2023-05-14T07:37:11;8.13;;;6.10;;
62633;SDS011;48704;50.534;6.442;2023-05-14T07:39:36;11.13;;;7.03;;
62633;SDS011;48704;50.534;6.442;2023-05-14T07:42:01;8.07;;;6.28;;
62633;SDS011;48704;50.534;6.442;2023-05-14T07:44:28;10.95;;;7.28;;
62633;SDS011;48704;50.534;6.442;2023-05-14T07:46:53;11.15;;;7.18;;
62633;SDS011;48704;50.534;6.442;2023-05-14T07:49:18;11.05;;;7.45;;
62633;SDS011;48704;50.534;6.442;2023-05-14T07:51:44;11.15;;;7.03;;
62633;SDS011;48704;50.534;6.442;2023-05-14T07:54:09;10.35;;;6.47;;
62633;SDS011;48704;50.534;6.442;2023-05-14T07:56:35;10.07;;;6.88;;
62633;SDS011;48704;50.534;6.442;2023-05-14T07:59:00;7.70;;;6.50;;
62633;SDS011;48704;50.534;6.442;2023-05-14T08:01:26;7.40;;;6.32;;
62633;SDS011;48704;50.534;6.442;2023-05-14T08:03:51;10.70;;;7.95;;
62633;SDS011;48704;50.534;6.442;2023-05-14T08:06:16;9.00;;;7.20;;
62633;SDS011;48704;50.534;6.442;2023-05-14T08:08:42;10.98;;;7.28;;
62633;SDS011;48704;50.534;6.442;2023-05-14T08:11:07;11.65;;;7.57;;
62633;SDS011;48704;50.534;6.442;2023-05-14T08:13:32;7.93;;;5.97;;
62633;SDS011;48704;50.534;6.442;2023-05-14T08:15:58;8.10;;;5.90;;
62633;SDS011;48704;50.534;6.442;2023-05-14T08:18:23;7.53;;;5.68;;
62633;SDS011;48704;50.534;6.442;2023-05-14T08:20:48;7.53;;;6.07;;
62633;SDS011;48704;50.534;6.442;2023-05-14T08:23:14;9.38;;;5.95;;
62633;SDS011;48704;50.534;6.442;2023-05-14T08:25:39;8.43;;;5.78;;
62633;SDS011;48704;50.534;6.442;2023-05-14T08:28:05;6.65;;;5.38;;
62633;SDS011;48704;50.534;6.442;2023-05-14T08:30:31;8.05;;;6.05;;
62633;SDS011;48704;50.534;6.442;2023-05-14T08:32:57;10.05;;;6.32;;
62633;SDS011;48704;50.534;6.442;2023-05-14T08:35:23;9.75;;;5.55;;
62633;SDS011;48704;50.534;6.442;2023-05-14T08:37:48;8.52;;;6.07;;
62633;SDS011;48704;50.534;6.442;2023-05-14T08:40:14;7.45;;;5.95;;
62633;SDS011;48704;50.534;6.442;2023-05-14T08:42:43;7.68;;;5.68;;
62633;SDS011;48704;50.534;6.442;2023-05-14T08:45:19;9.60;;;6.47;;
62633;SDS011;48704;50.534;6.442;2023-05-14T08:47:46;9.48;;;6.63;;
62633;SDS011;48704;50.534;6.442;2023-05-14T08:50:14;9.70;;;6.05;;
62633;SDS011;48704;50.534;6.442;2023-05-14T08:52:40;16.10;;;9.32;;
62633;SDS011;48704;50.534;6.442;2023-05-14T08:55:05;12.35;;;7.35;;
62633;SDS011;48704;50.534;6.442;2023-05-14T08:57:32;7.13;;;5.55;;
62633;SDS011;48704;50.534;6.442;2023-05-14T08:59:59;9.77;;;5.90;;
62633;SDS011;48704;50.534;6.442;2023-05-14T09:02:29;7.20;;;5.20;;
62633;SDS011;48704;50.534;6.442;2023-05-14T09:04:56;7.95;;;5.30;;
62633;SDS011;48704;50.534;6.442;2023-05-14T09:07:22;7.60;;;5.22;;
62633;SDS011;48704;50.534;6.442;2023-05-14T09:09:48;6.32;;;4.47;;
62633;SDS011;48704;50.534;6.442;2023-05-14T09:12:15;7.55;;;4.80;;
62633;SDS011;48704;50.534;6.442;2023-05-14T09:14:40;8.23;;;5.03;;
62633;SDS011;48704;50.534;6.442;2023-05-14T09:17:06;9.48;;;4.47;;
62633;SDS011;48704;50.534;6.442;2023-05-14T09:19:32;8.57;;;4.95;;
62633;SDS011;48704;50.534;6.442;2023-05-14T09:21:57;6.32;;;4.80;;
62633;SDS011;48704;50.534;6.442;2023-05-14T09:24:26;12.30;;;7.28;;
62633;SDS011;48704;50.534;6.442;2023-05-14T09:26:55;9.75;;;6.13;;
62633;SDS011;48704;50.534;6.442;2023-05-14T09:29:25;10.52;;;6.55;;
62633;SDS011;48704;50.534;6.442;2023-05-14T09:31:51;6.88;;;5.10;;
62633;SDS011;48704;50.534;6.442;2023-05-14T09:34:27;7.28;;;4.97;;
62633;SDS011;48704;50.534;6.442;2023-05-14T09:36:55;7.18;;;4.82;;
62633;SDS011;48704;50.534;6.442;2023-05-14T09:39:25;7.63;;;4.80;;
62633;SDS011;48704;50.534;6.442;2023-05-14T09:41:51;7.82;;;4.70;;
62633;SDS011;48704;50.534;6.442;2023-05-14T09:44:17;6.93;;;4.13;;
62633;SDS011;48704;50.534;6.442;2023-05-14T09:46:44;7.50;;;4.45;;
62633;SDS011;48704;50.534;6.442;2023-05-14T09:49:09;6.60;;;4.70;;
62633;SDS011;48704;50.534;6.442;2023-05-14T09:51:36;7.10;;;4.43;;
62633;SDS011;48704;50.534;6.442;2023-05-14T09:54:02;8.45;;;4.32;;
62633;SDS011;48704;50.534;6.442;2023-05-14T09:56:28;6.10;;;4.50;;
62633;SDS011;48704;50.534;6.442;2023-05-14T09:58:54;6.35;;;4.53;;
62633;SDS011;48704;50.534;6.442;2023-05-14T10:01:20;6.22;;;4.28;;
62633;SDS011;48704;50.534;6.442;2023-05-14T10:03:46;6.05;;;4.78;;
62633;SDS011;48704;50.534;6.442;2023-05-14T10:06:12;6.63;;;4.60;;
62633;SDS011;48704;50.534;6.442;2023-05-14T10:08:42;7.50;;;4.28;;
62633;SDS011;48704;50.534;6.442;2023-05-14T10:11:12;7.40;;;4.65;;
62633;SDS011;48704;50.534;6.442;2023-05-14T10:13:40;5.65;;;4.05;;
62633;SDS011;48704;50.534;6.442;2023-05-14T10:16:12;6.47;;;4.43;;
62633;SDS011;48704;50.534;6.442;2023-05-14T10:18:45;7.65;;;4.80;;
62633;SDS011;48704;50.534;6.442;2023-05-14T10:21:12;7.90;;;4.40;;
62633;SDS011;48704;50.534;6.442;2023-05-14T10:23:39;5.55;;;3.97;;
62633;SDS011;48704;50.534;6.442;2023-05-14T10:26:05;5.70;;;4.30;;
62633;SDS011;48704;50.534;6.442;2023-05-14T10:28:31;12.38;;;6.28;;
62633;SDS011;48704;50.534;6.442;2023-05-14T10:30:58;14.75;;;8.43;;
62633;SDS011;48704;50.534;6.442;2023-05-14T10:33:24;6.07;;;4.57;;
62633;SDS011;48704;50.534;6.442;2023-05-14T10:35:56;8.63;;;5.15;;
62633;SDS011;48704;50.534;6.442;2023-05-14T10:38:24;5.57;;;4.60;;
62633;SDS011;48704;50.534;6.442;2023-05-14T10:40:53;5.55;;;4.50;;
62633;SDS011;48704;50.534;6.442;2023-05-14T10:43:24;6.07;;;3.90;;
62633;SDS011;48704;50.534;6.442;2023-05-14T10:45:52;7.22;;;4.60;;
62633;SDS011;48704;50.534;6.442;2023-05-14T10:48:17;5.78;;;4.03;;
62633;SDS011;48704;50.534;6.442;2023-05-14T10:50:43;8.40;;;5.82;;
62633;SDS011;48704;50.534;6.442;2023-05-14T10:53:12;5.80;;;4.63;;
62633;SDS011;48704;50.534;6.442;2023-05-14T10:55:37;8.10;;;4.90;;
62633;SDS011;48704;50.534;6.442;2023-05-14T10:58:03;7.63;;;5.00;;
62633;SDS011;48704;50.534;6.442;2023-05-14T11:00:28;5.43;;;4.70;;
62633;SDS011;48704;50.534;6.442;2023-05-14T11:02:58;7.90;;;4.88;;
62633;SDS011;48704;50.534;6.442;2023-05-14T11:05:24;7.13;;;4.95;;
62633;SDS011;48704;50.534;6.442;2023-05-14T11:07:51;5.78;;;4.50;;
62633;SDS011;48704;50.534;6.442;2023-05-14T11:10:20;8.35;;;4.53;;
62633;SDS011;48704;50.534;6.442;2023-05-14T11:12:47;8.25;;;4.90;;
62633;SDS011;48704;50.534;6.442;2023-05-14T11:15:15;6.40;;;4.35;;
62633;SDS011;48704;50.534;6.442;2023-05-14T11:17:45;6.32;;;4.30;;
62633;SDS011;48704;50.534;6.442;2023-05-14T11:20:11;8.82;;;5.07;;
62633;SDS011;48704;50.534;6.442;2023-05-14T11:22:37;7.88;;;4.45;;
62633;SDS011;48704;50.534;6.442;2023-05-14T11:25:04;6.85;;;5.00;;
62633;SDS011;48704;50.534;6.442;2023-05-14T11:27:32;5.90;;;4.70;;
62633;SDS011;48704;50.534;6.442;2023-05-14T11:29:58;6.78;;;4.35;;
62633;SDS011;48704;50.534;6.442;2023-05-14T11:32:25;8.27;;;4.78;;
62633;SDS011;48704;50.534;6.442;2023-05-14T11:34:50;6.50;;;4.80;;
62633;SDS011;48704;50.534;6.442;2023-05-14T11:37:15;6.22;;;5.40;;
62633;SDS011;48704;50.534;6.442;2023-05-14T11:39:51;4.35;;;3.85;;
62633;SDS011;48704;50.534;6.442;2023-05-14T11:42:18;8.38;;;4.25;;
62633;SDS011;48704;50.534;6.442;2023-05-14T11:44:48;6.43;;;4.10;;
62633;SDS011;48704;50.534;6.442;2023-05-14T11:47:15;7.70;;;4.18;;
62633;SDS011;48704;50.534;6.442;2023-05-14T11:49:42;7.57;;;4.60;;
62633;SDS011;48704;50.534;6.442;2023-05-14T11:52:08;6.72;;;5.18;;
62633;SDS011;48704;50.534;6.442;2023-05-14T11:54:35;12.80;;;8.25;;
62633;SDS011;48704;50.534;6.442;2023-05-14T11:57:06;13.32;;;8.57;;
62633;SDS011;48704;50.534;6.442;2023-05-14T11:59:34;9.68;;;5.93;;
62633;SDS011;48704;50.534;6.442;2023-05-14T12:02:00;6.80;;;5.53;;
62633;SDS011;48704;50.534;6.442;2023-05-14T12:04:27;10.50;;;7.35;;
62633;SDS011;48704;50.534;6.442;2023-05-14T12:06:53;9.43;;;7.22;;
62633;SDS011;48704;50.534;6.442;2023-05-14T12:09:19;9.48;;;6.25;;
62633;SDS011;48704;50.534;6.442;2023-05-14T12:11:45;10.18;;;6.47;;
62633;SDS011;48704;50.534;6.442;2023-05-14T12:14:18;11.05;;;6.60;;
62633;SDS011;48704;50.534;6.442;2023-05-14T12:16:47;10.38;;;5.68;;
62633;SDS011;48704;50.534;6.442;2023-05-14T12:19:14;5.53;;;3.92;;
62633;SDS011;48704;50.534;6.442;2023-05-14T12:21:44;5.03;;;4.03;;
62633;SDS011;48704;50.534;6.442;2023-05-14T12:24:11;6.90;;;4.00;;
62633;SDS011;48704;50.534;6.442;2023-05-14T12:26:44;8.30;;;5.82;;
62633;SDS011;48704;50.534;6.442;2023-05-14T12:29:11;11.02;;;5.57;;
62633;SDS011;48704;50.534;6.442;2023-05-14T12:31:43;4.63;;;3.05;;
62633;SDS011;48704;50.534;6.442;2023-05-14T12:34:09;5.60;;;3.28;;
62633;SDS011;48704;50.534;6.442;2023-05-14T12:36:34;8.95;;;5.50;;
62633;SDS011;48704;50.534;6.442;2023-05-14T12:39:00;12.63;;;9.27;;
62633;SDS011;48704;50.534;6.442;2023-05-14T12:41:27;10.75;;;7.95;;
62633;SDS011;48704;50.534;6.442;2023-05-14T12:43:53;8.80;;;5.90;;
62633;SDS011;48704;50.534;6.442;2023-05-14T12:46:18;10.75;;;6.25;;
62633;SDS011;48704;50.534;6.442;2023-05-14T12:48:43;10.50;;;6.20;;
62633;SDS011;48704;50.534;6.442;2023-05-14T12:51:09;15.95;;;9.02;;
62633;SDS011;48704;50.534;6.442;2023-05-14T12:53:34;6.22;;;4.72;;
62633;SDS011;48704;50.534;6.442;2023-05-14T12:55:59;9.75;;;5.38;;
62633;SDS011;48704;50.534;6.442;2023-05-14T12:58:25;10.50;;;6.35;;
62633;SDS011;48704;50.534;6.442;2023-05-14T13:00:50;8.38;;;4.43;;
62633;SDS011;48704;50.534;6.442;2023-05-14T13:03:15;7.93;;;4.55;;
62633;SDS011;48704;50.534;6.442;2023-05-14T13:05:41;8.23;;;6.15;;
62633;SDS011;48704;50.534;6.442;2023-05-14T13:08:06;12.18;;;8.30;;
62633;SDS011;48704;50.534;6.442;2023-05-14T13:10:31;13.52;;;10.02;;
62633;SDS011;48704;50.534;6.442;2023-05-14T13:12:57;10.20;;;7.57;;
62633;SDS011;48704;50.534;6.442;2023-05-14T13:15:22;11.82;;;7.53;;
62633;SDS011;48704;50.534;6.442;2023-05-14T13:17:47;47.03;;;34.25;;
62633;SDS011;48704;50.534;6.442;2023-05-14T13:20:13;19.88;;;13.95;;
62633;SDS011;48704;50.534;6.442;2023-05-14T13:22:39;21.23;;;15.50;;
62633;SDS011;48704;50.534;6.442;2023-05-14T13:25:04;30.25;;;18.50;;
62633;SDS011;48704;50.534;6.442;2023-05-14T13:27:31;14.55;;;10.43;;
62633;SDS011;48704;50.534;6.442;2023-05-14T13:29:57;24.13;;;17.30;;
62633;SDS011;48704;50.534;6.442;2023-05-14T13:32:24;12.50;;;7.95;;
62633;SDS011;48704;50.534;6.442;2023-05-14T13:34:49;10.30;;;7.80;;
62633;SDS011;48704;50.534;6.442;2023-05-14T13:37:15;10.05;;;6.57;;
62633;SDS011;48704;50.534;6.442;2023-05-14T13:39:40;28.95;;;19.05;;
62633;SDS011;48704;50.534;6.442;2023-05-14T13:42:05;20.02;;;9.52;;
62633;SDS011;48704;50.534;6.442;2023-05-14T13:44:31;11.45;;;7.32;;
62633;SDS011;48704;50.534;6.442;2023-05-14T13:46:56;17.38;;;10.43;;
62633;SDS011;48704;50.534;6.442;2023-05-14T13:49:21;17.60;;;10.90;;
62633;SDS011;48704;50.534;6.442;2023-05-14T13:51:47;12.55;;;8.27;;
62633;SDS011;48704;50.534;6.442;2023-05-14T13:54:12;8.02;;;5.53;;
62633;SDS011;48704;50.534;6.442;2023-05-14T13:56:37;10.23;;;6.32;;
62633;SDS011;48704;50.534;6.442;2023-05-14T13:59:03;6.75;;;5.15;;
62633;SDS011;48704;50.534;6.442;2023-05-14T14:01:28;15.10;;;10.52;;
62633;SDS011;48704;50.534;6.442;2023-05-14T14:03:55;17.05;;;15.23;;
62633;SDS011;48704;50.534;6.442;2023-05-14T14:06:20;10.63;;;8.35;;
62633;SDS011;48704;50.534;6.442;2023-05-14T14:08:45;10.82;;;7.28;;
62633;SDS011;48704;50.534;6.442;2023-05-14T14:11:10;9.70;;;7.20;;
62633;SDS011;48704;50.534;6.442;2023-05-14T14:13:37;11.02;;;7.78;;
62633;SDS011;48704;50.534;6.442;2023-05-14T14:16:03;10.75;;;8.45;;
62633;SDS011;48704;50.534;6.442;2023-05-14T14:18:30;13.40;;;9.45;;
62633;SDS011;48704;50.534;6.442;2023-05-14T14:20:55;13.25;;;9.35;;
62633;SDS011;48704;50.534;6.442;2023-05-14T14:23:21;12.63;;;10.00;;
62633;SDS011;48704;50.534;6.442;2023-05-14T14:25:46;13.32;;;10.35;;
62633;SDS011;48704;50.534;6.442;2023-05-14T14:28:11;12.10;;;9.85;;
62633;SDS011;48704;50.534;6.442;2023-05-14T14:30:37;12.27;;;9.23;;
62633;SDS011;48704;50.534;6.442;2023-05-14T14:33:02;13.23;;;9.38;;